Time;durP1;ratioP1;P1;durP2;ratioP2;P2;SDS_P1;SDS_P2;PMS_P1;PMS_P2;Temp;Humidity;BMP_temperature;BMP_pressure;BME280_temperature;BME280_humidity;BME280_pressure;Samples;Min_cycle;Max_cycle;Signal;HPM_P1;HPM_P2
2021/12/16 00:01:41;;;;;;;2.47;1.10;;;9.20;99.90;;;;;;4411572;32;20077;-71
2021/12/16 00:02:16;;;;;;;4.15;1.80;;;9.30;99.90;;;;;;4403788;32;20086;-71
2021/12/16 00:07:06;;;;;;;3.72;1.12;;;9.20;99.90;;;;;;4417650;32;20054;-70
2021/12/16 00:09:32;;;;;;;2.15;1.05;;;9.30;99.90;;;;;;4417662;32;20536;-71
2021/12/16 00:29:03;;;;;;;1.67;1.00;;;9.20;99.90;;;;;;4408335;32;20080;-71
2021/12/16 00:29:58;;;;;;;1.00;1.00;;;9.30;99.90;;;;;;4407212;32;20093;-71
2021/12/16 00:31:22;;;;;;;2.10;1.00;;;9.30;99.90;;;;;;4412031;32;20069;-70
2021/12/16 00:34:00;;;;;;;1.12;1.00;;;9.30;99.90;;;;;;4425287;32;20093;-71
2021/12/16 00:36:29;;;;;;;3.03;0.80;;;9.30;99.90;;;;;;4421210;32;20081;-70
2021/12/16 00:38:54;;;;;;;1.35;1.10;;;9.30;99.90;;;;;;4420803;32;20057;-70
2021/12/16 00:41:20;;;;;;;5.65;1.85;;;9.30;99.90;;;;;;4420604;32;20468;-71
2021/12/16 00:43:53;;;;;;;7.30;1.80;;;9.30;99.90;;;;;;4417314;32;20097;-71
2021/12/16 00:54:16;;;;;;;2.95;1.02;;;9.30;99.90;;;;;;4406882;32;20117;-70
2021/12/16 00:56:52;;;;;;;8.25;1.27;;;9.30;99.90;;;;;;4416893;32;20069;-71
2021/12/16 00:59:20;;;;;;;3.97;1.52;;;9.30;99.90;;;;;;4417917;32;20086;-71
2021/12/16 01:04:48;;;;;;;6.43;2.15;;;9.30;99.90;;;;;;4416322;32;20112;-71
2021/12/16 01:33:29;;;;;;;0.95;0.88;;;9.30;99.90;;;;;;4406926;32;21306;-70
2021/12/16 01:34:27;;;;;;;1.55;1.40;;;9.30;99.90;;;;;;4409959;32;20090;-71
2021/12/16 01:35:14;;;;;;;2.12;0.82;;;9.20;99.90;;;;;;4406768;32;20542;-70
2021/12/16 01:38:10;;;;;;;2.17;0.73;;;9.20;99.90;;;;;;4419537;32;20086;-71
2021/12/16 01:45:37;;;;;;;9.38;1.20;;;9.20;99.90;;;;;;4411060;32;20367;-70
2021/12/16 01:46:28;;;;;;;3.05;1.58;;;9.20;99.90;;;;;;4410199;32;20128;-70
2021/12/16 01:49:09;;;;;;;0.90;0.80;;;9.20;99.90;;;;;;4401587;32;20077;-71
2021/12/16 01:51:41;;;;;;;2.40;2.10;;;9.20;99.90;;;;;;4405552;32;20077;-71
2021/12/16 01:55:31;;;;;;;1.23;0.77;;;9.20;99.90;;;;;;4420214;32;20068;-71
2021/12/16 01:57:13;;;;;;;7.68;1.95;;;9.20;99.90;;;;;;4408687;32;20066;-71
2021/12/16 01:59:43;;;;;;;1.60;1.33;;;9.20;99.90;;;;;;4416957;32;20097;-71
2021/12/16 02:02:33;;;;;;;3.30;1.20;;;9.20;99.90;;;;;;4418220;32;20113;-71
2021/12/16 02:06:15;;;;;;;2.25;1.02;;;9.20;99.90;;;;;;4422272;32;20090;-72
2021/12/16 02:08:11;;;;;;;2.45;1.20;;;9.10;99.90;;;;;;4410205;32;20492;-70
2021/12/16 02:10:40;;;;;;;0.60;0.60;;;9.10;99.90;;;;;;4405675;32;20082;-71
2021/12/16 02:27:27;;;;;;;0.43;0.43;;;9.10;99.90;;;;;;4407219;32;20074;-71
2021/12/16 02:30:03;;;;;;;1.67;0.95;;;9.00;99.90;;;;;;4420327;32;20065;-71
2021/12/16 02:32:55;;;;;;;3.40;1.45;;;9.00;99.90;;;;;;4417103;32;20518;-69
2021/12/16 02:37:48;;;;;;;0.60;0.60;;;9.00;99.90;;;;;;4419116;32;20109;-70
2021/12/16 02:40:14;;;;;;;0.77;0.73;;;9.00;99.90;;;;;;4419589;32;20139;-70
2021/12/16 02:42:54;;;;;;;3.25;1.83;;;9.00;99.90;;;;;;4419045;32;20128;-71
2021/12/16 02:48:40;;;;;;;1.50;1.25;;;9.00;99.90;;;;;;4410046;32;20094;-70
2021/12/16 02:50:53;;;;;;;1.05;0.82;;;9.00;99.90;;;;;;4409291;32;20097;-71
2021/12/16 02:53:18;;;;;;;4.00;1.15;;;9.00;99.90;;;;;;4423202;32;20384;-71
2021/12/16 02:55:46;;;;;;;0.98;0.95;;;9.00;99.90;;;;;;4420936;32;20060;-70
2021/12/16 02:58:12;;;;;;;2.35;1.05;;;9.00;99.90;;;;;;4420644;32;20066;-70
2021/12/16 03:00:43;;;;;;;0.50;0.50;;;9.00;99.90;;;;;;4419757;32;20545;-70
2021/12/16 03:03:09;;;;;;;1.65;0.93;;;9.00;99.90;;;;;;4416576;32;20062;-71
2021/12/16 03:05:35;;;;;;;0.90;0.55;;;9.00;99.90;;;;;;4423747;32;20054;-70
2021/12/16 03:08:01;;;;;;;0.90;0.90;;;9.00;99.90;;;;;;4407737;32;20085;-70
2021/12/16 03:13:05;;;;;;;0.70;0.70;;;9.00;99.90;;;;;;4419900;32;20088;-71
2021/12/16 03:18:21;;;;;;;1.65;0.62;;;9.00;99.90;;;;;;4418731;32;20084;-70
2021/12/16 03:20:52;;;;;;;0.65;0.60;;;8.90;99.90;;;;;;4420640;32;20078;-70
2021/12/16 03:26:08;;;;;;;1.55;0.60;;;9.00;99.90;;;;;;4416537;32;20121;-71
2021/12/16 03:29:00;;;;;;;0.40;0.40;;;9.00;99.90;;;;;;4421260;32;20102;-71
2021/12/16 03:32:42;;;;;;;1.35;1.25;;;8.90;99.90;;;;;;4405594;32;20066;-71
2021/12/16 03:36:50;;;;;;;19.87;0.82;;;8.90;99.90;;;;;;4418531;32;20592;-71
2021/12/16 03:39:17;;;;;;;7.78;1.40;;;8.90;99.90;;;;;;4419899;32;20367;-70
2021/12/16 03:41:43;;;;;;;1.45;0.68;;;8.90;99.90;;;;;;4421489;32;20123;-72
2021/12/16 03:44:13;;;;;;;1.23;1.12;;;8.80;99.90;;;;;;4420326;32;20057;-71
2021/12/16 03:46:43;;;;;;;0.55;0.55;;;8.90;99.90;;;;;;4420849;32;20545;-71
2021/12/16 03:49:17;;;;;;;1.73;0.88;;;8.90;99.90;;;;;;4423298;32;20057;-71
2021/12/16 03:51:55;;;;;;;0.50;0.50;;;8.90;99.90;;;;;;4420088;32;20114;-71
2021/12/16 03:54:25;;;;;;;1.55;0.80;;;8.90;99.90;;;;;;4420956;32;20066;-71
2021/12/16 03:56:52;;;;;;;0.70;0.70;;;8.90;99.90;;;;;;4421420;32;20127;-71
2021/12/16 03:59:22;;;;;;;0.75;0.68;;;8.90;99.90;;;;;;4418990;32;20157;-70
2021/12/16 04:01:48;;;;;;;2.28;1.20;;;9.00;99.90;;;;;;4419853;32;20202;-71
2021/12/16 04:04:14;;;;;;;1.15;1.00;;;9.00;99.90;;;;;;4421035;32;20097;-71
2021/12/16 04:06:40;;;;;;;0.35;0.35;;;8.90;99.90;;;;;;4418721;32;20419;-70
2021/12/16 04:09:09;;;;;;;0.65;0.65;;;9.00;99.90;;;;;;4418980;32;20097;-70
2021/12/16 04:11:41;;;;;;;1.58;0.88;;;9.00;99.90;;;;;;4421053;32;20658;-71
2021/12/16 04:14:09;;;;;;;7.47;1.55;;;9.00;99.90;;;;;;4420313;32;20077;-71
2021/12/16 04:16:40;;;;;;;0.47;0.47;;;9.00;99.90;;;;;;4419968;32;20086;-71
2021/12/16 04:19:11;;;;;;;3.37;2.37;;;9.00;99.90;;;;;;4421386;32;20145;-70
2021/12/16 04:21:40;;;;;;;1.83;0.60;;;9.00;99.90;;;;;;4420073;32;20086;-71
2021/12/16 04:24:07;;;;;;;0.40;0.40;;;9.00;99.90;;;;;;4417182;32;20550;-71
2021/12/16 04:26:33;;;;;;;6.10;1.52;;;9.00;99.90;;;;;;4420415;32;20086;-70
2021/12/16 04:29:00;;;;;;;3.30;1.52;;;9.00;99.90;;;;;;4422085;32;20058;-71
2021/12/16 04:31:25;;;;;;;3.22;0.85;;;9.00;99.90;;;;;;4400625;32;20094;-71
2021/12/16 04:33:51;;;;;;;0.60;0.57;;;9.00;99.90;;;;;;4415923;32;102095;-70
2021/12/16 04:36:17;;;;;;;0.90;0.70;;;9.00;99.90;;;;;;4419160;32;20450;-70
2021/12/16 04:38:45;;;;;;;21.98;1.35;;;9.00;99.90;;;;;;4416293;32;20061;-70
2021/12/16 04:41:12;;;;;;;3.30;1.25;;;9.00;99.90;;;;;;4418798;32;20094;-70
2021/12/16 04:43:46;;;;;;;0.88;0.85;;;9.00;99.90;;;;;;4421256;32;20075;-71
2021/12/16 04:46:17;;;;;;;1.02;0.45;;;9.00;99.90;;;;;;4421401;32;20090;-70
2021/12/16 04:48:45;;;;;;;19.98;1.25;;;9.00;99.90;;;;;;4414357;32;20074;-71
2021/12/16 04:51:11;;;;;;;1.55;1.42;;;9.00;99.90;;;;;;4415007;32;20070;-71
2021/12/16 04:53:38;;;;;;;0.82;0.70;;;9.00;99.90;;;;;;4418135;32;20081;-71
2021/12/16 04:56:05;;;;;;;0.73;0.70;;;8.90;99.90;;;;;;4419885;32;20432;-71
2021/12/16 04:58:30;;;;;;;0.60;0.60;;;8.90;99.90;;;;;;4419059;32;20078;-70
2021/12/16 05:00:56;;;;;;;0.88;0.88;;;9.00;99.90;;;;;;4423455;32;20313;-70
2021/12/16 05:03:23;;;;;;;1.02;0.80;;;8.90;99.90;;;;;;4422793;32;20116;-70
2021/12/16 05:05:49;;;;;;;0.65;0.65;;;8.90;99.90;;;;;;4415383;32;20519;-71
2021/12/16 05:08:14;;;;;;;0.60;0.60;;;8.90;99.90;;;;;;4424734;32;20097;-70
2021/12/16 05:10:43;;;;;;;1.17;0.90;;;8.90;99.90;;;;;;4420066;32;20073;-71
2021/12/16 05:13:09;;;;;;;4.95;0.60;;;8.90;99.90;;;;;;4424376;32;20077;-71
2021/12/16 05:15:38;;;;;;;1.60;1.00;;;8.90;99.90;;;;;;4418091;32;20066;-71
2021/12/16 05:18:08;;;;;;;3.62;0.62;;;8.90;99.90;;;;;;4419906;32;20058;-71
2021/12/16 05:20:40;;;;;;;0.70;0.70;;;8.90;99.90;;;;;;4419106;32;20081;-71
2021/12/16 05:24:39;;;;;;;1.40;0.90;;;8.90;99.90;;;;;;4415719;32;20073;-71
2021/12/16 05:26:24;;;;;;;0.95;0.82;;;8.90;99.90;;;;;;4403561;32;20069;-72
2021/12/16 05:28:42;;;;;;;0.57;0.57;;;8.80;99.90;;;;;;4411034;32;20125;-70
2021/12/16 05:31:08;;;;;;;3.35;0.93;;;8.80;99.90;;;;;;4418045;32;20070;-71
2021/12/16 05:33:34;;;;;;;8.38;3.10;;;8.80;99.90;;;;;;4414505;32;20086;-71
2021/12/16 05:35:59;;;;;;;0.65;0.65;;;8.70;99.90;;;;;;4418454;32;20171;-71
2021/12/16 05:38:26;;;;;;;0.40;0.40;;;8.60;99.90;;;;;;4420174;32;20102;-70
2021/12/16 05:40:53;;;;;;;4.47;1.08;;;8.60;99.90;;;;;;4419327;32;20069;-70
2021/12/16 05:43:23;;;;;;;0.80;0.80;;;8.60;99.90;;;;;;4415144;32;20093;-70
2021/12/16 05:45:49;;;;;;;0.70;0.70;;;8.50;99.90;;;;;;4415993;32;21220;-71
2021/12/16 05:48:22;;;;;;;0.82;0.65;;;8.60;99.90;;;;;;4416984;32;20080;-70
2021/12/16 05:50:52;;;;;;;2.10;0.98;;;8.50;99.90;;;;;;4415982;32;20078;-71
2021/12/16 05:53:18;;;;;;;0.40;0.40;;;8.50;99.90;;;;;;4420740;32;20074;-70
2021/12/16 05:55:44;;;;;;;1.10;0.98;;;8.50;99.90;;;;;;4418287;32;20129;-72
2021/12/16 05:58:15;;;;;;;1.00;0.50;;;8.50;99.90;;;;;;4400619;32;20111;-70
2021/12/16 06:00:42;;;;;;;0.60;0.60;;;8.40;99.90;;;;;;4421426;32;20552;-71
2021/12/16 06:03:08;;;;;;;0.68;0.68;;;8.40;99.90;;;;;;4414267;32;20471;-70
2021/12/16 06:05:33;;;;;;;2.08;0.90;;;8.50;99.90;;;;;;4417898;32;20133;-72
2021/12/16 06:07:59;;;;;;;1.48;0.80;;;8.40;99.90;;;;;;4419294;32;20120;-70
2021/12/16 06:11:08;;;;;;;1.58;0.70;;;8.50;99.90;;;;;;4419315;32;20085;-71
2021/12/16 06:13:12;;;;;;;1.20;0.73;;;8.50;99.90;;;;;;4409367;32;20129;-71
2021/12/16 06:15:58;;;;;;;1.92;0.82;;;8.50;99.90;;;;;;4419158;32;20078;-71
2021/12/16 06:26:56;;;;;;;0.77;0.70;;;8.30;99.90;;;;;;4394318;32;20121;-71
2021/12/16 06:29:22;;;;;;;0.57;0.55;;;8.30;99.90;;;;;;4410284;32;20061;-71
2021/12/16 06:31:48;;;;;;;0.80;0.80;;;8.30;99.90;;;;;;4393109;32;20096;-71
2021/12/16 06:34:15;;;;;;;0.80;0.80;;;8.30;99.90;;;;;;4415664;32;20153;-70
2021/12/16 06:36:40;;;;;;;6.05;1.52;;;8.40;99.90;;;;;;4406429;32;20569;-70
2021/12/16 06:39:07;;;;;;;5.95;2.05;;;8.40;99.90;;;;;;4411789;32;20070;-70
2021/12/16 06:41:36;;;;;;;2.72;1.73;;;8.30;99.90;;;;;;4403189;32;20089;-70
2021/12/16 06:44:11;;;;;;;0.55;0.55;;;8.30;99.90;;;;;;4399908;32;20069;-71
2021/12/16 06:46:39;;;;;;;8.20;1.30;;;8.20;99.90;;;;;;4408753;32;20180;-71
2021/12/16 06:49:06;;;;;;;0.60;0.60;;;8.20;99.90;;;;;;4413219;32;20736;-71
2021/12/16 06:51:49;;;;;;;0.60;0.60;;;8.40;99.90;;;;;;4408563;32;20589;-70
2021/12/16 06:54:24;;;;;;;3.17;1.55;;;8.30;99.90;;;;;;4406496;32;20455;-70
2021/12/16 06:57:00;;;;;;;2.60;0.90;;;8.30;99.90;;;;;;4412025;32;20098;-71
2021/12/16 06:59:33;;;;;;;0.90;0.90;;;8.40;99.90;;;;;;4402806;32;20122;-71
2021/12/16 07:02:42;;;;;;;0.88;0.77;;;8.40;99.90;;;;;;4402977;32;20208;-71
2021/12/16 07:04:56;;;;;;;2.20;1.10;;;8.40;99.90;;;;;;4395155;32;21709;-70
2021/12/16 07:07:23;;;;;;;0.82;0.82;;;8.50;99.90;;;;;;4404998;32;20081;-71
2021/12/16 07:09:51;;;;;;;2.58;1.40;;;8.40;99.90;;;;;;4406286;32;20815;-72
2021/12/16 07:12:26;;;;;;;0.73;0.73;;;8.50;99.90;;;;;;4402619;32;20524;-71
2021/12/16 07:15:07;;;;;;;2.42;0.75;;;8.50;99.90;;;;;;4405490;32;20089;-71
2021/12/16 07:17:34;;;;;;;1.45;1.10;;;8.40;99.90;;;;;;4406932;32;20101;-70
2021/12/16 07:19:59;;;;;;;1.77;0.85;;;8.50;99.90;;;;;;4412669;32;20442;-70
2021/12/16 07:22:25;;;;;;;12.27;0.82;;;8.50;99.90;;;;;;4408480;32;20095;-70
2021/12/16 07:24:51;;;;;;;0.88;0.62;;;8.40;99.90;;;;;;4401864;32;20098;-70
2021/12/16 07:27:21;;;;;;;0.95;0.90;;;8.50;99.90;;;;;;4405412;32;21007;-71
2021/12/16 07:29:47;;;;;;;3.93;0.97;;;8.40;99.90;;;;;;4400420;32;20544;-70
2021/12/16 07:32:13;;;;;;;0.55;0.55;;;8.40;99.90;;;;;;4402188;32;21358;-71
2021/12/16 07:34:39;;;;;;;0.57;0.57;;;8.40;99.90;;;;;;4404188;32;20172;-69
2021/12/16 07:37:06;;;;;;;0.60;0.60;;;8.40;99.90;;;;;;4403923;32;20077;-71
2021/12/16 07:39:38;;;;;;;0.60;0.60;;;8.30;99.90;;;;;;4405757;32;20401;-70
2021/12/16 07:42:06;;;;;;;1.58;0.77;;;8.30;99.90;;;;;;4404272;32;20228;-70
2021/12/16 07:44:34;;;;;;;1.70;1.08;;;8.40;99.90;;;;;;4403872;32;20093;-71
2021/12/16 07:47:04;;;;;;;7.22;1.05;;;8.40;99.90;;;;;;4406118;32;20159;-69
2021/12/16 07:49:33;;;;;;;0.75;0.65;;;8.50;99.90;;;;;;4411390;32;20153;-70
2021/12/16 07:52:03;;;;;;;0.50;0.50;;;8.50;99.90;;;;;;4408377;32;20065;-70
2021/12/16 07:54:28;;;;;;;2.97;1.37;;;8.60;99.90;;;;;;4406516;32;20097;-70
2021/12/16 07:56:55;;;;;;;2.65;1.95;;;8.60;99.90;;;;;;4407354;32;20510;-69
2021/12/16 07:59:23;;;;;;;1.52;0.65;;;8.60;99.90;;;;;;4405635;32;20105;-69
2021/12/16 08:01:49;;;;;;;0.65;0.65;;;8.60;99.90;;;;;;4404782;32;20073;-69
2021/12/16 08:04:21;;;;;;;1.05;0.75;;;8.60;99.90;;;;;;4405837;32;20102;-70
2021/12/16 08:06:50;;;;;;;0.70;0.70;;;8.60;99.90;;;;;;4404872;32;21724;-69
2021/12/16 08:09:15;;;;;;;5.32;1.00;;;8.50;99.90;;;;;;4405761;32;20069;-70
2021/12/16 08:11:43;;;;;;;0.57;0.57;;;8.50;99.90;;;;;;4404353;32;20081;-69
2021/12/16 08:14:09;;;;;;;1.52;0.80;;;8.50;99.90;;;;;;4406261;32;20089;-69
2021/12/16 08:16:37;;;;;;;1.75;1.17;;;8.60;99.90;;;;;;4404373;32;20432;-70
2021/12/16 08:19:04;;;;;;;1.87;0.88;;;8.60;99.90;;;;;;4398543;32;20148;-69
2021/12/16 08:21:30;;;;;;;0.82;0.80;;;8.60;99.90;;;;;;4401406;32;20767;-70
2021/12/16 08:23:58;;;;;;;3.03;0.82;;;8.70;99.90;;;;;;4407792;32;20093;-70
2021/12/16 08:26:24;;;;;;;0.50;0.50;;;8.60;99.90;;;;;;4395468;32;20241;-69
2021/12/16 08:28:50;;;;;;;0.40;0.40;;;8.70;99.90;;;;;;4396700;32;20623;-71
2021/12/16 08:31:15;;;;;;;10.13;1.55;;;8.60;99.90;;;;;;4399088;32;20608;-70
2021/12/16 08:33:41;;;;;;;1.77;0.80;;;8.60;99.90;;;;;;4400980;32;20159;-71
2021/12/16 08:36:08;;;;;;;5.72;0.93;;;8.70;99.90;;;;;;4403089;32;20181;-71
2021/12/16 08:38:35;;;;;;;1.92;1.23;;;8.80;99.90;;;;;;4404791;32;20093;-70
2021/12/16 08:41:08;;;;;;;2.05;0.73;;;8.80;99.90;;;;;;4415358;32;20153;-70
2021/12/16 08:43:34;;;;;;;0.55;0.50;;;8.80;99.90;;;;;;4411490;32;20078;-72
2021/12/16 08:46:01;;;;;;;0.57;0.57;;;8.80;99.90;;;;;;4414902;32;20062;-70
2021/12/16 08:48:26;;;;;;;0.30;0.28;;;8.90;99.90;;;;;;4408141;32;20621;-71
2021/12/16 08:50:53;;;;;;;0.95;0.70;;;8.80;99.90;;;;;;4404270;32;20713;-69
2021/12/16 08:53:22;;;;;;;1.02;0.70;;;8.80;99.90;;;;;;4400756;32;20138;-70
2021/12/16 08:55:49;;;;;;;5.05;1.75;;;8.80;99.90;;;;;;4400607;32;20148;-69
2021/12/16 08:58:15;;;;;;;2.15;1.10;;;8.80;99.90;;;;;;4404126;32;20295;-69
2021/12/16 09:00:46;;;;;;;0.60;0.60;;;8.80;99.90;;;;;;4404232;32;20086;-70
2021/12/16 09:03:12;;;;;;;0.77;0.70;;;8.90;99.90;;;;;;4401957;32;20088;-70
2021/12/16 09:05:38;;;;;;;0.65;0.65;;;8.90;99.90;;;;;;4401624;32;20090;-71
2021/12/16 09:08:05;;;;;;;3.87;1.12;;;8.80;99.90;;;;;;4405869;32;20495;-71
2021/12/16 09:10:33;;;;;;;0.55;0.55;;;8.90;99.90;;;;;;4406190;32;20469;-70
2021/12/16 09:13:03;;;;;;;0.40;0.40;;;9.00;99.90;;;;;;4404868;32;20077;-71
2021/12/16 09:15:34;;;;;;;0.60;0.60;;;9.00;99.90;;;;;;4406334;32;20097;-71
2021/12/16 09:18:00;;;;;;;;;;;9.00;99.90;;;;;;4404695;32;20163;-70
2021/12/16 09:20:26;;;;;;;1.15;0.93;;;9.10;99.90;;;;;;4403935;32;20055;-71
2021/12/16 09:22:54;;;;;;;3.58;0.60;;;9.10;99.90;;;;;;4407028;32;20382;-71
2021/12/16 09:25:20;;;;;;;2.30;0.95;;;9.00;99.90;;;;;;4404901;32;20093;-71
2021/12/16 09:27:46;;;;;;;0.73;0.60;;;9.00;99.90;;;;;;4404932;32;21984;-70
2021/12/16 09:30:16;;;;;;;1.95;0.93;;;8.90;99.90;;;;;;4404540;32;20101;-71
2021/12/16 09:32:42;;;;;;;0.35;0.35;;;9.00;99.90;;;;;;4401762;32;20402;-70
2021/12/16 09:35:09;;;;;;;0.60;0.60;;;9.00;99.90;;;;;;4413303;32;20155;-70
2021/12/16 09:37:35;;;;;;;0.52;0.52;;;9.00;99.90;;;;;;4410692;32;20073;-70
2021/12/16 09:40:02;;;;;;;3.35;1.27;;;9.00;99.90;;;;;;4412228;32;20534;-70
2021/12/16 09:42:28;;;;;;;0.93;0.80;;;9.00;99.90;;;;;;4415572;32;20656;-70
2021/12/16 09:44:54;;;;;;;0.40;0.40;;;9.10;99.90;;;;;;4414749;32;20124;-71
2021/12/16 09:47:23;;;;;;;0.80;0.80;;;9.20;99.90;;;;;;4409808;32;20114;-70
2021/12/16 09:49:49;;;;;;;0.60;0.60;;;9.20;99.90;;;;;;4408430;32;20109;-70
2021/12/16 09:52:15;;;;;;;0.70;0.70;;;9.10;99.90;;;;;;4411757;32;20109;-71
2021/12/16 09:54:43;;;;;;;1.45;1.35;;;9.10;99.90;;;;;;4415390;32;20104;-70
2021/12/16 09:57:10;;;;;;;0.60;0.60;;;9.10;99.90;;;;;;4417603;32;20538;-71
2021/12/16 09:59:36;;;;;;;3.55;1.10;;;9.20;99.90;;;;;;4414772;32;20081;-70
2021/12/16 10:02:08;;;;;;;0.40;0.40;;;9.20;99.90;;;;;;4414028;32;20088;-71
2021/12/16 10:04:35;;;;;;;2.00;1.10;;;9.20;99.90;;;;;;4414098;32;20097;-71
2021/12/16 10:07:06;;;;;;;0.40;0.40;;;9.10;99.90;;;;;;4412283;32;20556;-70
2021/12/16 10:09:31;;;;;;;0.70;0.70;;;9.10;99.90;;;;;;4413511;32;20109;-71
2021/12/16 10:12:01;;;;;;;2.05;1.08;;;9.10;99.90;;;;;;4411447;32;20774;-71
2021/12/16 10:17:30;;;;;;;1.40;0.70;;;9.10;99.90;;;;;;4407906;32;20058;-71
2021/12/16 10:19:41;;;;;;;1.25;0.73;;;9.10;99.90;;;;;;4392077;32;20066;-71
2021/12/16 10:22:17;;;;;;;1.50;0.95;;;9.10;99.90;;;;;;4401418;32;20077;-71
2021/12/16 10:24:43;;;;;;;1.40;0.80;;;9.10;99.90;;;;;;4400564;32;20106;-71
2021/12/16 10:27:13;;;;;;;9.05;1.00;;;9.20;99.90;;;;;;4409015;32;20918;-71
2021/12/16 10:29:42;;;;;;;0.60;0.60;;;9.20;99.90;;;;;;4407638;32;20069;-71
2021/12/16 10:32:30;;;;;;;1.65;0.60;;;9.20;99.90;;;;;;4406967;32;20307;-71
2021/12/16 10:34:58;;;;;;;0.80;0.80;;;9.20;99.90;;;;;;4400410;32;20089;-71
2021/12/16 10:37:33;;;;;;;0.60;0.60;;;9.20;99.90;;;;;;4409864;32;20156;-71
2021/12/16 10:40:40;;;;;;;2.28;0.52;;;9.30;99.90;;;;;;4415811;32;20114;-71
2021/12/16 10:43:14;;;;;;;2.83;0.85;;;9.30;99.90;;;;;;4405002;32;20086;-70
2021/12/16 10:45:44;;;;;;;0.98;0.98;;;9.30;99.90;;;;;;4413870;32;20147;-70
2021/12/16 10:48:29;;;;;;;0.70;0.70;;;9.20;99.90;;;;;;4414242;32;20176;-71
2021/12/16 10:51:03;;;;;;;0.55;0.55;;;9.30;99.90;;;;;;4416066;32;20465;-70
2021/12/16 10:53:51;;;;;;;0.80;0.50;;;9.30;99.90;;;;;;4413960;32;20085;-72
2021/12/16 10:56:21;;;;;;;8.82;2.37;;;9.40;99.90;;;;;;4402414;32;20102;-70
2021/12/16 10:58:54;;;;;;;0.80;0.57;;;9.40;99.90;;;;;;4408314;32;20097;-71
2021/12/16 11:01:42;;;;;;;0.47;0.47;;;9.40;99.90;;;;;;4410979;32;20782;-71
2021/12/16 11:04:15;;;;;;;1.15;0.52;;;9.40;99.90;;;;;;4403603;32;20104;-70
2021/12/16 11:06:45;;;;;;;3.03;1.08;;;9.40;99.90;;;;;;4414459;32;20117;-70
2021/12/16 11:09:34;;;;;;;0.45;0.45;;;9.50;99.90;;;;;;4418806;32;20093;-71
2021/12/16 11:12:17;;;;;;;0.45;0.45;;;9.50;99.90;;;;;;4406298;32;20101;-71
2021/12/16 11:14:50;;;;;;;0.30;0.30;;;9.60;99.90;;;;;;4416250;32;20462;-71
2021/12/16 11:17:18;;;;;;;0.50;0.50;;;9.60;99.90;;;;;;4410533;32;20097;-71
2021/12/16 11:19:50;;;;;;;0.90;0.90;;;9.70;99.90;;;;;;4415047;32;20569;-71
2021/12/16 11:22:20;;;;;;;0.40;0.40;;;9.70;99.90;;;;;;4413478;32;20745;-72
2021/12/16 11:24:47;;;;;;;0.40;0.40;;;9.80;99.90;;;;;;4420723;32;20066;-71
2021/12/16 11:27:32;;;;;;;0.50;0.50;;;9.70;99.90;;;;;;4412819;32;20086;-71
2021/12/16 11:30:16;;;;;;;0.65;0.60;;;9.70;99.90;;;;;;4415927;32;20173;-71
2021/12/16 11:32:45;;;;;;;0.50;0.50;;;9.70;99.90;;;;;;4400210;32;20078;-71
2021/12/16 11:35:34;;;;;;;0.50;0.50;;;9.80;99.90;;;;;;4416953;32;20538;-71
2021/12/16 11:38:10;;;;;;;0.40;0.40;;;9.80;99.90;;;;;;4403963;32;20085;-71
2021/12/16 11:40:58;;;;;;;0.30;0.30;;;9.90;99.90;;;;;;4419673;32;20089;-71
2021/12/16 11:43:46;;;;;;;0.60;0.60;;;9.90;99.90;;;;;;4412715;32;20082;-72
2021/12/16 11:46:24;;;;;;;0.43;0.43;;;10.00;99.90;;;;;;4402303;32;20085;-70
2021/12/16 11:48:53;;;;;;;0.73;0.57;;;10.00;99.90;;;;;;4412861;32;20094;-70
2021/12/16 11:51:26;;;;;;;0.57;0.57;;;10.10;99.90;;;;;;4414012;32;20093;-67
2021/12/16 11:53:55;;;;;;;0.82;0.52;;;10.20;99.90;;;;;;4407007;32;20062;-71
2021/12/16 11:56:42;;;;;;;0.40;0.40;;;10.20;99.90;;;;;;4408496;32;20136;-70
2021/12/16 11:59:08;;;;;;;0.43;0.43;;;10.40;99.90;;;;;;4394995;32;20082;-71
2021/12/16 12:01:36;;;;;;;0.70;0.70;;;10.60;99.90;;;;;;4422103;32;20379;-71
2021/12/16 12:04:07;;;;;;;1.15;0.62;;;10.70;99.90;;;;;;4419592;32;20090;-71
2021/12/16 12:06:34;;;;;;;0.43;0.43;;;10.80;99.90;;;;;;4419299;32;20423;-71
2021/12/16 12:09:02;;;;;;;0.40;0.40;;;10.80;99.90;;;;;;4414817;32;20098;-71
2021/12/16 12:11:31;;;;;;;1.23;0.50;;;10.90;99.90;;;;;;4418684;32;20522;-71
2021/12/16 12:14:03;;;;;;;0.93;0.93;;;10.80;99.90;;;;;;4416117;32;20094;-70
2021/12/16 12:16:34;;;;;;;0.60;0.60;;;10.70;99.90;;;;;;4417346;32;20084;-70
2021/12/16 12:19:18;;;;;;;1.58;0.80;;;10.60;99.90;;;;;;4417662;32;20065;-70
2021/12/16 12:21:54;;;;;;;0.50;0.50;;;10.40;99.90;;;;;;4417370;32;20078;-70
2021/12/16 12:24:24;;;;;;;0.30;0.30;;;10.50;99.90;;;;;;4417199;32;20413;-71
2021/12/16 12:26:56;;;;;;;0.50;0.50;;;10.40;99.90;;;;;;4420478;32;20085;-70
2021/12/16 12:29:31;;;;;;;0.52;0.50;;;10.60;99.90;;;;;;4415168;32;20375;-70
2021/12/16 12:32:08;;;;;;;0.52;0.52;;;10.70;99.90;;;;;;4416825;32;20323;-70
2021/12/16 12:34:35;;;;;;;0.40;0.40;;;10.70;99.90;;;;;;4414004;32;20089;-70
2021/12/16 12:37:05;;;;;;;0.40;0.40;;;10.60;99.90;;;;;;4414065;32;20578;-70
2021/12/16 12:39:36;;;;;;;0.40;0.40;;;10.60;99.90;;;;;;4414897;32;20085;-70
2021/12/16 12:42:02;;;;;;;;;;;10.50;99.90;;;;;;4413303;32;20408;-70
2021/12/16 12:44:28;;;;;;;0.40;0.40;;;10.60;99.90;;;;;;4409519;32;20205;-70
2021/12/16 12:46:59;;;;;;;0.40;0.40;;;10.70;99.90;;;;;;4408068;32;20089;-74
2021/12/16 12:49:26;;;;;;;3.53;1.25;;;10.80;99.90;;;;;;4403751;32;20968;-71
2021/12/16 12:52:11;;;;;;;0.73;0.40;;;11.20;99.90;;;;;;4406629;32;20191;-71
2021/12/16 12:54:40;;;;;;;0.55;0.55;;;11.50;99.90;;;;;;4408432;32;20082;-71
2021/12/16 12:57:27;;;;;;;0.50;0.50;;;11.80;99.90;;;;;;4414849;32;20105;-71
2021/12/16 12:59:54;;;;;;;0.52;0.50;;;12.00;99.90;;;;;;4404544;32;20141;-71
2021/12/16 13:02:25;;;;;;;0.40;0.40;;;12.30;99.90;;;;;;4414545;32;20118;-71
2021/12/16 13:04:54;;;;;;;0.40;0.40;;;12.30;99.90;;;;;;4416513;32;20116;-71
2021/12/16 13:07:35;;;;;;;0.62;0.60;;;12.30;99.90;;;;;;4416887;32;20411;-71
2021/12/16 13:10:10;;;;;;;2.78;0.50;;;12.30;99.90;;;;;;4419010;32;20089;-71
2021/12/16 13:12:47;;;;;;;0.40;0.40;;;12.30;99.90;;;;;;4422098;32;20079;-71
2021/12/16 13:25:37;;;;;;;0.50;0.50;;;11.30;99.90;;;;;;4412934;32;20117;-70
2021/12/16 13:26:42;;;;;;;0.50;0.50;;;11.00;99.90;;;;;;4407710;32;20163;-70
2021/12/16 13:29:28;;;;;;;1.50;1.40;;;10.90;99.90;;;;;;4420835;32;20086;-70
2021/12/16 13:32:11;;;;;;;0.40;0.40;;;10.80;99.90;;;;;;4418337;32;20065;-70
2021/12/16 13:35:00;;;;;;;0.40;0.40;;;10.90;99.90;;;;;;4422391;32;20093;-72
2021/12/16 13:37:34;;;;;;;0.50;0.50;;;11.00;99.90;;;;;;4420818;32;20353;-71
2021/12/16 13:40:19;;;;;;;0.75;0.75;;;11.00;99.90;;;;;;4422200;32;20326;-71
2021/12/16 13:42:54;;;;;;;0.62;0.50;;;10.80;99.90;;;;;;4415191;32;20106;-70
2021/12/16 13:45:29;;;;;;;0.50;0.50;;;10.70;99.90;;;;;;4421538;32;20085;-71
2021/12/16 13:59:00;;;;;;;2.05;0.60;;;10.10;99.90;;;;;;4407361;32;20150;-70
2021/12/16 14:03:26;;;;;;;0.43;0.43;;;10.00;99.90;;;;;;4419381;32;20612;-70
2021/12/16 14:05:31;;;;;;;0.43;0.43;;;9.90;99.90;;;;;;4421950;32;20110;-71
2021/12/16 14:07:59;;;;;;;0.30;0.30;;;9.80;99.90;;;;;;4414858;32;20458;-71
2021/12/16 14:16:54;;;;;;;0.43;0.43;;;9.70;99.90;;;;;;4401302;32;20106;-70
2021/12/16 14:23:05;;;;;;;0.40;0.40;;;9.60;99.90;;;;;;4411428;32;20070;-70
2021/12/16 14:25:22;;;;;;;4.68;1.70;;;9.60;99.90;;;;;;4413305;32;20097;-71
2021/12/16 14:36:45;;;;;;;0.30;0.30;;;9.30;99.90;;;;;;4412458;32;20045;-71
2021/12/16 14:39:10;;;;;;;0.40;0.40;;;9.30;99.90;;;;;;4411498;32;20074;-71
2021/12/16 14:41:44;;;;;;;;;;;9.20;99.90;;;;;;4423975;32;20565;-71
2021/12/16 14:47:00;;;;;;;0.40;0.40;;;9.20;99.90;;;;;;4422008;32;20478;-71
2021/12/16 14:49:38;;;;;;;0.30;0.30;;;9.20;99.90;;;;;;4424701;32;20145;-70
2021/12/16 14:52:12;;;;;;;0.30;0.30;;;9.20;99.90;;;;;;4424861;32;20529;-72
2021/12/16 14:54:52;;;;;;;0.55;0.55;;;9.20;99.90;;;;;;4424247;32;20070;-71
2021/12/16 14:57:25;;;;;;;0.40;0.40;;;9.10;99.90;;;;;;4423515;32;20581;-71
2021/12/16 14:59:51;;;;;;;17.27;0.55;;;9.10;99.90;;;;;;4421165;32;20061;-71
2021/12/16 15:02:22;;;;;;;0.70;0.70;;;9.10;99.90;;;;;;4423585;32;20069;-71
2021/12/16 15:04:47;;;;;;;0.57;0.57;;;9.00;99.90;;;;;;4419122;32;20141;-71
2021/12/16 15:07:14;;;;;;;3.33;0.88;;;9.00;99.90;;;;;;4419501;32;20093;-70
2021/12/16 15:09:41;;;;;;;0.30;0.30;;;8.90;99.90;;;;;;4424279;32;20069;-71
2021/12/16 15:12:19;;;;;;;1.35;0.60;;;8.80;99.90;;;;;;4424687;32;20078;-72
2021/12/16 15:15:32;;;;;;;0.80;0.80;;;8.80;99.90;;;;;;4426465;32;20081;-72
2021/12/16 15:33:43;;;;;;;2.08;1.17;;;8.40;99.90;;;;;;4397491;32;20271;-71
2021/12/16 15:35:54;;;;;;;0.37;0.37;;;8.40;99.90;;;;;;4390918;32;20393;-71
2021/12/16 15:38:09;;;;;;;0.30;0.30;;;8.40;99.90;;;;;;4408253;32;20095;-71
2021/12/16 15:40:31;;;;;;;0.30;0.30;;;8.30;99.90;;;;;;4423156;32;20138;-71
2021/12/16 15:43:00;;;;;;;0.40;0.40;;;8.00;99.90;;;;;;4421889;32;20084;-71
2021/12/16 15:45:48;;;;;;;2.72;1.20;;;8.00;99.90;;;;;;4428581;32;20618;-71
2021/12/16 15:48:20;;;;;;;0.40;0.40;;;8.00;99.90;;;;;;4415697;32;20128;-72